KXNA/XNA METAR and TAF weather

Enter ICAO airport designator
Station Type Date Time Source
KXNA METAR 2021/04/18 01:53 UTC NOAA

KXNA 180153Z 33003KT 10SM OVC048 08/04 A3009 RMK AO2 SLP188 T00830044


Station Type Date Time Source
KXNA Decoded METAR 2021/04/18 01:53 UTC NOAA

NORTHWEST ARKANSAS REGIONAL, AR, United States (KXNA) 36-17N 94-18W
Apr 17, 2021 - 09:53 PM EDT / 2021.04.18 0153 UTC
Wind: from the NNW (330 degrees) at 3 MPH (3 KT):0
Visibility: 10 mile(s):0
Sky conditions: overcast
Temperature: 46.9 F (8.3 C)
Dew Point: 39.9 F (4.4 C)
Relative Humidity: 76%
Pressure (altimeter): 30.09 in. Hg (1018 hPa)
ob: KXNA 180153Z 33003KT 10SM OVC048 08/04 A3009 RMK AO2 SLP188 T00830044
cycle: 2

Station Type Date Time Source
KXNA TAF 2021/04/17 18:21 UTC NOAA

TAF KXNA 171720Z 1718/1818 34008KT P6SM OVC015
TEMPO 1718/1720 BKN020
FM172000 33010KT P6SM BKN035
FM180200 VRB03KT P6SM BKN035
TEMPO 1811/1815 BKN025
FM181500 31006KT P6SM BKN035

Example: see airport list